createdAt,value
2018-10-05T00:00:00.533Z,52.70
2018-10-05T00:05:04.518Z,52.70
2018-10-05T00:10:07.796Z,52.80
2018-10-05T00:15:11.044Z,52.70
2018-10-05T00:20:14.558Z,52.60
2018-10-05T00:25:18.844Z,52.70
2018-10-05T00:30:22.101Z,52.60
2018-10-05T00:35:25.480Z,52.60
2018-10-05T00:40:28.715Z,52.60
2018-10-05T00:45:31.977Z,52.60
2018-10-05T00:50:35.191Z,52.50
2018-10-05T00:55:38.674Z,52.50
2018-10-05T01:00:41.955Z,52.40
2018-10-05T01:05:45.241Z,52.40
2018-10-05T01:10:48.499Z,52.40
2018-10-05T01:15:52.366Z,52.40
2018-10-05T01:20:56.515Z,52.30
2018-10-05T01:26:00.308Z,52.20
2018-10-05T01:31:03.760Z,52.20
2018-10-05T01:36:07.068Z,52.20
2018-10-05T01:41:10.311Z,52.00
2018-10-05T01:46:13.524Z,52.00
2018-10-05T01:51:26.785Z,51.90
2018-10-05T01:56:31.248Z,51.90
2018-10-05T02:01:34.668Z,51.90
2018-10-05T02:06:37.855Z,51.90
2018-10-05T02:11:41.044Z,51.90
2018-10-05T02:16:44.387Z,51.90
2018-10-05T02:21:47.689Z,51.80
2018-10-05T02:26:51.745Z,51.80
2018-10-05T02:31:55.314Z,51.80
2018-10-05T02:36:58.598Z,51.70
2018-10-05T02:42:01.932Z,51.70
2018-10-05T02:47:05.480Z,51.60
2018-10-05T02:52:09.035Z,51.60
2018-10-05T02:57:12.441Z,51.50
2018-10-05T03:02:28.235Z,51.50
2018-10-05T03:07:32.149Z,51.60
2018-10-05T03:12:35.389Z,51.70
2018-10-05T03:17:38.802Z,51.60
2018-10-05T03:22:42.061Z,51.60
2018-10-05T03:27:45.357Z,51.50
2018-10-05T03:32:48.811Z,51.70
2018-10-05T03:37:52.077Z,51.50
2018-10-05T03:42:55.415Z,51.60
2018-10-05T03:47:58.889Z,51.60
2018-10-05T03:53:02.227Z,51.50
2018-10-05T03:58:05.471Z,51.40
2018-10-05T04:03:08.665Z,51.50
2018-10-05T04:08:11.870Z,51.60
2018-10-05T04:13:15.373Z,51.60
2018-10-05T04:18:18.629Z,51.50
2018-10-05T04:23:21.838Z,51.50
2018-10-05T04:28:25.290Z,51.60
2018-10-05T04:33:28.739Z,51.60
2018-10-05T04:38:32.071Z,51.70
2018-10-05T04:43:35.259Z,51.70
2018-10-05T04:48:38.769Z,51.60
2018-10-05T04:53:42.187Z,51.50
2018-10-05T04:58:45.499Z,51.50
2018-10-05T05:03:48.990Z,51.50
2018-10-05T05:08:52.476Z,51.50
2018-10-05T05:13:56.355Z,51.60
2018-10-05T05:18:59.718Z,51.60
2018-10-05T05:24:03.047Z,51.60
2018-10-05T05:29:06.727Z,51.70
2018-10-05T05:34:10.182Z,51.60
2018-10-05T05:39:14.721Z,51.70
2018-10-05T05:44:18.272Z,51.70
2018-10-05T05:49:21.828Z,51.70
2018-10-05T05:54:25.248Z,51.50
2018-10-05T05:59:28.650Z,51.50
2018-10-05T06:04:31.869Z,51.40
2018-10-05T06:09:35.150Z,51.50
2018-10-05T06:14:39.210Z,51.60
2018-10-05T06:19:42.938Z,51.40
2018-10-05T06:24:46.536Z,51.30
2018-10-05T06:29:50.300Z,51.40
2018-10-05T06:34:53.749Z,51.50
2018-10-05T06:39:57.509Z,51.40
2018-10-05T06:45:00.720Z,51.40
2018-10-05T06:50:04.206Z,51.30
2018-10-05T06:55:07.669Z,51.20
2018-10-05T07:00:11.245Z,51.10
2018-10-05T07:05:15.087Z,51.10
2018-10-05T07:10:19.091Z,51.10
2018-10-05T07:15:22.494Z,51.00
2018-10-05T07:20:26.220Z,51.00
2018-10-05T07:25:29.634Z,50.90
2018-10-05T07:30:33.573Z,51.10
2018-10-05T07:35:37.976Z,50.90
2018-10-05T07:40:42.088Z,50.70
2018-10-05T07:45:45.277Z,50.90
2018-10-05T07:50:48.847Z,50.90
2018-10-05T07:55:52.185Z,50.70
2018-10-05T08:00:55.684Z,50.60
2018-10-05T08:05:59.126Z,50.50
2018-10-05T08:11:03.742Z,50.50
2018-10-05T08:16:08.321Z,50.30
2018-10-05T08:21:12.226Z,50.40
2018-10-05T08:26:15.451Z,50.30
2018-10-05T08:31:18.693Z,50.80
2018-10-05T08:36:22.325Z,50.60
2018-10-05T08:41:25.766Z,50.60
2018-10-05T08:46:29.325Z,50.50
2018-10-05T08:51:32.720Z,50.40
2018-10-05T08:56:36.188Z,50.30
2018-10-05T09:01:40.319Z,50.10
2018-10-05T09:06:43.640Z,49.90
2018-10-05T09:11:48.187Z,49.80
2018-10-05T09:16:51.626Z,49.80
2018-10-05T09:21:55.379Z,50.10
2018-10-05T09:26:59.446Z,50.00
2018-10-05T09:32:03.089Z,50.00
2018-10-05T09:37:06.605Z,50.10
2018-10-05T09:42:10.845Z,50.10
2018-10-05T09:47:14.192Z,50.10
2018-10-05T09:52:18.972Z,49.60
2018-10-05T09:57:23.451Z,49.40
2018-10-05T10:02:34.843Z,49.40
2018-10-05T10:07:38.590Z,49.30
2018-10-05T10:12:43.026Z,49.50
2018-10-05T10:17:46.608Z,49.20
2018-10-05T10:22:50.439Z,49.00
2018-10-05T10:27:53.884Z,48.90
2018-10-05T10:32:57.399Z,48.90
2018-10-05T10:38:00.995Z,48.80
2018-10-05T10:43:04.972Z,48.70
2018-10-05T10:48:08.694Z,49.00
2018-10-05T10:53:12.354Z,49.20
2018-10-05T10:58:15.968Z,49.40
2018-10-05T11:03:19.698Z,49.30
2018-10-05T11:08:23.232Z,49.80
2018-10-05T11:13:26.898Z,49.30
2018-10-05T11:18:30.337Z,49.30
2018-10-05T11:23:34.709Z,49.00
2018-10-05T11:28:38.261Z,49.00
2018-10-05T11:33:42.104Z,48.90
2018-10-05T11:38:46.498Z,48.80
2018-10-05T11:43:50.432Z,49.30
2018-10-05T11:48:53.635Z,49.00
2018-10-05T11:53:56.961Z,49.00
2018-10-05T11:59:00.264Z,48.90
2018-10-05T12:04:11.997Z,48.80
2018-10-05T12:09:16.683Z,48.70
2018-10-05T12:14:20.055Z,49.20
2018-10-05T12:19:23.418Z,48.60
2018-10-05T12:24:26.700Z,48.60
2018-10-05T12:29:30.137Z,48.50
2018-10-05T12:34:33.658Z,48.60
2018-10-05T12:39:36.909Z,48.50
2018-10-05T12:44:40.692Z,48.50
2018-10-05T12:49:43.958Z,49.00
2018-10-05T12:54:47.213Z,48.40
2018-10-05T12:59:51.722Z,48.40
2018-10-05T13:04:55.020Z,48.40
2018-10-05T13:09:58.221Z,48.40
2018-10-05T13:15:01.527Z,48.40
2018-10-05T13:20:04.730Z,48.50
2018-10-05T13:25:08.115Z,48.50
2018-10-05T13:30:11.742Z,48.50
2018-10-05T13:35:15.110Z,48.50
2018-10-05T13:40:18.335Z,48.50
2018-10-05T13:45:21.621Z,48.40
2018-10-05T13:50:25.494Z,48.20
2018-10-05T13:55:28.812Z,48.10
2018-10-05T14:00:32.475Z,48.00
2018-10-05T14:05:35.768Z,47.90
2018-10-05T14:10:39.369Z,47.70
2018-10-05T14:15:42.777Z,47.70
2018-10-05T14:20:46.285Z,47.60
2018-10-05T14:25:50.009Z,47.50
2018-10-05T14:30:53.718Z,47.60
2018-10-05T14:35:57.722Z,47.60
2018-10-05T14:41:01.193Z,47.60
2018-10-05T14:46:05.038Z,47.70
2018-10-05T14:51:08.441Z,47.60
2018-10-05T14:56:12.047Z,47.60
2018-10-05T15:01:15.473Z,47.20
2018-10-05T15:06:19.513Z,47.10
2018-10-05T15:11:23.103Z,47.00
2018-10-05T15:16:26.575Z,47.10
2018-10-05T15:21:31.224Z,46.90
2018-10-05T15:26:34.899Z,46.90
2018-10-05T15:31:39.000Z,46.80
2018-10-05T15:36:43.276Z,46.80
2018-10-05T15:41:48.158Z,45.40
2018-10-05T15:46:55.191Z,44.80
2018-10-05T15:51:59.610Z,44.50
2018-10-05T15:57:03.549Z,45.00
2018-10-05T16:02:07.683Z,44.30
2018-10-05T16:07:16.401Z,44.70
2018-10-05T16:12:19.925Z,44.20
2018-10-05T16:17:23.585Z,43.70
2018-10-05T16:22:27.014Z,44.20
2018-10-05T16:27:31.719Z,44.90
2018-10-05T16:32:35.174Z,44.60
2018-10-05T16:37:39.091Z,45.30
2018-10-05T16:42:43.264Z,46.50
2018-10-05T16:47:47.499Z,45.90
2018-10-05T16:52:51.595Z,46.10
2018-10-05T16:57:56.579Z,47.50
2018-10-05T17:03:00.468Z,49.70
2018-10-05T17:08:04.820Z,50.00
2018-10-05T17:13:08.071Z,50.60
2018-10-05T17:18:11.333Z,51.30
2018-10-05T17:23:15.081Z,51.70
2018-10-05T17:28:18.733Z,53.20
2018-10-05T17:33:22.071Z,54.00
2018-10-05T17:38:25.798Z,54.60
2018-10-05T17:43:29.136Z,54.90
2018-10-05T17:48:32.598Z,55.50
2018-10-05T17:53:36.388Z,55.30
2018-10-05T17:58:39.758Z,55.00
2018-10-05T18:03:43.401Z,55.10
2018-10-05T18:08:47.096Z,55.10
2018-10-05T18:13:50.797Z,55.20
2018-10-05T18:18:54.015Z,55.60
2018-10-05T18:23:57.353Z,56.00
2018-10-05T18:29:00.859Z,55.90
2018-10-05T18:34:04.236Z,55.90
2018-10-05T18:39:09.019Z,56.30
2018-10-05T18:44:13.626Z,56.00
2018-10-05T18:49:17.020Z,56.00
2018-10-05T18:54:25.588Z,56.20
2018-10-05T18:59:30.132Z,55.10
2018-10-05T19:04:33.447Z,54.20
2018-10-05T19:09:36.697Z,53.80
2018-10-05T19:14:40.251Z,53.20
2018-10-05T19:19:43.809Z,52.50
2018-10-05T19:24:47.199Z,51.50
2018-10-05T19:29:50.939Z,50.60
2018-10-05T19:34:54.420Z,50.70
2018-10-05T19:39:58.424Z,50.90
2018-10-05T19:45:01.801Z,50.80
2018-10-05T19:50:05.252Z,50.50
2018-10-05T19:55:09.019Z,50.30
2018-10-05T20:00:12.934Z,51.10
2018-10-05T20:05:16.495Z,50.10
2018-10-05T20:10:19.839Z,50.10
2018-10-05T20:15:23.411Z,50.00
2018-10-05T20:20:26.935Z,49.50
2018-10-05T20:25:30.586Z,49.60
2018-10-05T20:30:33.966Z,49.90
2018-10-05T20:35:37.311Z,50.00
2018-10-05T20:40:40.660Z,49.40
2018-10-05T20:45:43.909Z,49.30
2018-10-05T20:50:47.363Z,49.60
2018-10-05T20:55:51.473Z,49.20
2018-10-05T21:00:54.985Z,49.20
2018-10-05T21:05:58.479Z,48.70
2018-10-05T21:11:02.584Z,48.90
2018-10-05T21:16:05.969Z,48.90
2018-10-05T21:21:09.507Z,49.40
2018-10-05T21:26:12.726Z,49.60
2018-10-05T21:31:16.215Z,49.60
2018-10-05T21:36:19.487Z,48.50
2018-10-05T21:41:23.055Z,48.00
2018-10-05T21:46:26.355Z,47.80
2018-10-05T21:51:31.333Z,48.20
2018-10-05T21:56:34.706Z,47.70
2018-10-05T22:01:37.948Z,48.20
2018-10-05T22:06:41.199Z,48.60
2018-10-05T22:11:44.409Z,48.90
2018-10-05T22:16:47.901Z,49.20
2018-10-05T22:21:51.187Z,49.30
2018-10-05T22:26:54.674Z,49.60
2018-10-05T22:31:57.883Z,50.30
2018-10-05T22:37:01.106Z,49.90
2018-10-05T22:42:04.384Z,50.00
2018-10-05T22:47:07.723Z,50.10
2018-10-05T22:52:10.929Z,50.20
2018-10-05T22:57:14.126Z,50.10
2018-10-05T23:02:17.535Z,50.10
2018-10-05T23:07:20.837Z,50.10
2018-10-05T23:12:24.721Z,50.20
2018-10-05T23:17:28.176Z,50.40
2018-10-05T23:22:31.427Z,50.30
2018-10-05T23:27:34.595Z,50.30
2018-10-05T23:32:37.790Z,50.40
2018-10-05T23:37:41.644Z,50.40
2018-10-05T23:42:45.004Z,50.40
2018-10-05T23:47:48.334Z,50.40
2018-10-05T23:52:52.214Z,50.30
2018-10-05T23:57:56.186Z,50.50
